Time;durP1;ratioP1;P1;durP2;ratioP2;P2;SDS_P1;SDS_P2;PMS_P1;PMS_P2;Temp;Humidity;BMP_temperature;BMP_pressure;BME280_temperature;BME280_humidity;BME280_pressure;Samples;Min_cycle;Max_cycle;Signal;HPM_P1;HPM_P2
2021/06/18 00:00:17;;;;;;;6.72;4.88;;;22.80;99.90;;;24.29;71.39;100333.63;6186667;23;20059;-86
2021/06/18 00:02:46;;;;;;;7.43;4.82;;;22.70;99.90;;;24.23;71.68;100336.28;6185019;23;20005;-85
2021/06/18 00:05:13;;;;;;;9.38;5.10;;;22.70;99.90;;;24.14;72.19;100331.25;6185506;23;20005;-84
2021/06/18 00:07:43;;;;;;;6.72;4.90;;;22.60;99.90;;;24.06;72.46;100331.94;6186919;23;20075;-86
2021/06/18 00:10:12;;;;;;;9.60;5.28;;;22.50;99.90;;;24.03;72.68;100327.13;6186528;23;20052;-86
2021/06/18 00:12:39;;;;;;;7.82;5.25;;;22.50;99.90;;;23.99;72.83;100327.25;6185112;23;20021;-87
2021/06/18 00:15:09;;;;;;;8.70;5.70;;;22.50;99.90;;;23.98;72.85;100322.81;6185848;23;20009;-87
2021/06/18 00:17:36;;;;;;;9.80;6.05;;;22.40;99.90;;;24.00;72.23;100313.78;6187529;23;20439;-86
2021/06/18 00:20:09;;;;;;;8.73;5.78;;;22.50;99.90;;;24.05;71.77;100314.00;6162275;23;20386;-85
2021/06/18 00:22:36;;;;;;;9.05;5.35;;;22.50;99.90;;;24.11;71.51;100312.19;6187716;23;20431;-86
2021/06/18 00:25:04;;;;;;;9.52;6.13;;;22.60;99.90;;;24.25;69.94;100310.13;6189918;23;20032;-87
2021/06/18 00:27:30;;;;;;;6.47;5.43;;;22.70;99.90;;;24.33;69.72;100317.19;6187637;23;20028;-86
2021/06/18 00:29:56;;;;;;;7.97;5.88;;;22.80;99.90;;;24.38;69.51;100311.69;6187468;23;20005;-86
2021/06/18 00:32:21;;;;;;;7.00;5.85;;;22.80;99.90;;;24.42;69.23;100314.44;6188444;23;20025;-86
2021/06/18 00:34:47;;;;;;;12.43;6.38;;;22.90;99.90;;;24.32;69.44;100304.19;6187835;23;20013;-86
2021/06/18 00:37:13;;;;;;;14.40;6.68;;;22.90;99.90;;;24.39;68.91;100310.44;6162651;23;20402;-85
2021/06/18 00:39:40;;;;;;;13.70;6.40;;;22.90;99.90;;;24.39;68.99;100304.75;6161712;23;20061;-86
2021/06/18 00:42:07;;;;;;;11.07;5.43;;;22.90;99.90;;;24.39;69.02;100304.75;6188338;23;20056;-84
2021/06/18 00:44:34;;;;;;;12.70;6.18;;;22.90;99.90;;;24.34;69.66;100313.09;6187737;23;20023;-87
2021/06/18 00:47:00;;;;;;;15.18;7.03;;;22.80;99.90;;;24.34;69.49;100310.25;6187938;23;20009;-85
2021/06/18 00:49:26;;;;;;;7.78;5.82;;;22.80;99.90;;;24.34;69.63;100313.88;6188632;23;20008;-87
2021/06/18 00:51:55;;;;;;;10.60;6.15;;;22.80;99.90;;;24.32;69.48;100307.03;6186992;23;20012;-84
2021/06/18 00:54:29;;;;;;;9.98;6.18;;;22.80;99.90;;;24.31;69.68;100300.53;6187576;23;20001;-86
2021/06/18 00:57:01;;;;;;;10.05;5.82;;;22.70;99.90;;;24.25;69.75;100296.66;6162446;23;20436;-86
2021/06/18 00:59:28;;;;;;;10.95;5.90;;;22.70;99.90;;;24.22;69.91;100291.06;6189341;23;20012;-86
2021/06/18 01:01:55;;;;;;;9.52;6.53;;;22.70;99.90;;;24.18;70.20;100291.19;6187481;23;20021;-85
2021/06/18 01:04:29;;;;;;;12.00;5.95;;;22.70;99.90;;;24.17;70.23;100289.63;6189025;23;20059;-85
2021/06/18 01:07:40;;;;;;;8.23;6.40;;;22.60;99.90;;;24.17;70.56;100292.47;6188187;23;20009;-88
2021/06/18 01:10:33;;;;;;;10.05;5.72;;;22.60;99.90;;;24.13;70.48;100292.59;6097376;23;20027;-88
2021/06/18 01:13:09;;;;;;;10.98;6.40;;;22.60;99.90;;;24.11;70.44;100297.13;6164608;23;20020;-86
2021/06/18 01:16:24;;;;;;;11.68;6.20;;;22.60;99.90;;;24.04;70.65;100298.16;6191705;23;20056;-84
2021/06/18 01:19:33;;;;;;;8.63;5.43;;;22.50;99.90;;;24.01;70.85;100301.94;6166046;23;20012;-85
2021/06/18 01:22:11;;;;;;;7.40;5.82;;;22.40;99.90;;;23.97;71.11;100304.09;6194342;23;20009;-83
2021/06/18 01:25:32;;;;;;;12.80;7.75;;;22.40;99.90;;;23.93;71.97;100302.63;6201283;23;20316;-86
2021/06/18 01:28:36;;;;;;;13.82;7.50;;;22.40;99.90;;;23.96;72.02;100290.28;6188825;23;20443;-85
2021/06/18 01:31:05;;;;;;;10.10;6.63;;;22.40;99.90;;;23.97;71.81;100289.84;6189423;23;20009;-85
2021/06/18 01:33:35;;;;;;;13.23;7.93;;;22.40;99.90;;;23.94;72.19;100290.75;6189873;23;20089;-86
2021/06/18 01:36:05;;;;;;;12.32;7.25;;;22.40;99.90;;;23.91;72.35;100290.88;6192465;23;20020;-86
2021/06/18 01:38:41;;;;;;;11.85;7.20;;;22.40;99.90;;;23.88;72.40;100286.88;6192713;23;20020;-86
2021/06/18 01:41:16;;;;;;;10.82;6.07;;;22.40;99.90;;;23.84;72.65;100291.91;6164564;23;20001;-85
2021/06/18 01:43:50;;;;;;;10.02;7.80;;;22.30;99.90;;;23.86;73.02;100286.53;6190491;23;20104;-85
2021/06/18 01:46:24;;;;;;;11.23;7.05;;;22.40;99.90;;;23.92;72.71;100286.78;6188861;23;20066;-85
2021/06/18 01:49:01;;;;;;;13.07;8.52;;;22.40;99.90;;;23.88;73.12;100274.69;6189440;23;20384;-84
2021/06/18 01:51:31;;;;;;;13.45;8.20;;;22.30;99.90;;;23.84;73.17;100265.44;6191148;23;20109;-86
2021/06/18 01:54:01;;;;;;;10.85;7.70;;;22.30;99.90;;;23.80;73.43;100262.69;6187813;23;20009;-85
2021/06/18 01:56:32;;;;;;;9.27;6.68;;;22.30;99.90;;;23.79;73.51;100260.31;6190490;23;20016;-85
2021/06/18 01:59:02;;;;;;;11.23;7.55;;;22.30;99.90;;;23.76;73.87;100264.88;6188314;23;20013;-85
2021/06/18 02:01:47;;;;;;;14.40;7.88;;;22.30;99.90;;;23.79;73.69;100258.25;6161110;23;20017;-84
2021/06/18 02:04:16;;;;;;;11.38;7.65;;;22.20;99.90;;;23.77;73.85;100255.06;6188653;23;20001;-86
2021/06/18 02:06:48;;;;;;;13.13;7.38;;;22.30;99.90;;;23.78;73.92;100253.00;6187519;23;20449;-85
2021/06/18 02:09:17;;;;;;;14.13;9.25;;;22.30;99.90;;;23.74;74.51;100253.13;6189509;23;20005;-84
2021/06/18 02:11:44;;;;;;;15.32;10.20;;;22.20;99.90;;;23.79;74.57;100246.84;6161846;23;20004;-83
2021/06/18 02:14:20;;;;;;;13.65;9.20;;;22.30;99.90;;;23.87;74.34;100244.56;6187166;23;20028;-86
2021/06/18 02:16:54;;;;;;;12.23;9.70;;;22.30;99.90;;;23.90;74.02;100247.28;6186179;23;20047;-85
2021/06/18 02:19:23;;;;;;;14.68;10.40;;;22.40;99.90;;;23.87;74.34;100242.50;6187293;23;20016;-84
2021/06/18 02:21:54;;;;;;;13.23;8.30;;;22.30;99.90;;;23.88;74.26;100252.66;6160393;23;20009;-84
2021/06/18 02:24:26;;;;;;;9.95;8.50;;;22.30;99.90;;;23.83;74.75;100250.38;6188290;23;20016;-86
2021/06/18 02:26:55;;;;;;;13.43;8.57;;;22.40;99.90;;;23.85;74.51;100249.94;6185506;23;20016;-86
2021/06/18 02:29:22;;;;;;;9.57;6.57;;;22.30;99.90;;;23.75;74.72;100251.09;6187581;23;20335;-85
2021/06/18 02:31:52;;;;;;;10.10;8.63;;;22.20;99.90;;;23.66;75.51;100254.63;6185357;23;20039;-84
2021/06/18 02:34:18;;;;;;;12.18;9.65;;;22.10;99.90;;;23.63;75.86;100249.03;6185861;23;20032;-86
2021/06/18 02:36:44;;;;;;;14.40;9.85;;;22.10;99.90;;;23.60;76.07;100260.09;6186998;23;20004;-85
2021/06/18 02:39:13;;;;;;;13.10;9.35;;;22.10;99.90;;;23.57;76.10;100257.34;6187303;23;20326;-84
2021/06/18 02:41:41;;;;;;;12.05;9.27;;;22.00;99.90;;;23.53;76.17;100259.53;6185906;23;20435;-85
2021/06/18 02:44:09;;;;;;;17.77;11.43;;;22.00;99.90;;;23.51;76.63;100262.81;6188054;23;20055;-86
2021/06/18 02:47:15;;;;;;;11.93;9.07;;;21.90;99.90;;;23.56;76.71;100270.81;6163030;23;20095;-85
2021/06/18 02:50:05;;;;;;;16.90;10.32;;;22.00;99.90;;;23.56;76.52;100272.88;6187418;23;20009;-85
2021/06/18 02:53:00;;;;;;;12.23;10.40;;;22.00;99.90;;;23.54;76.81;100261.09;6188263;23;20023;-86
2021/06/18 02:56:00;;;;;;;14.52;10.35;;;22.00;99.90;;;23.48;77.08;100262.94;6188870;23;20008;-86
2021/06/18 02:58:50;;;;;;;15.55;9.05;;;21.90;99.90;;;23.43;77.30;100254.97;6186590;23;20011;-88
2021/06/18 03:01:23;;;;;;;15.65;10.75;;;21.90;99.90;;;23.41;77.42;100241.16;6162216;23;20535;-86
2021/06/18 03:03:57;;;;;;;14.02;9.45;;;21.90;99.90;;;23.46;77.23;100229.22;6162835;23;20036;-87
2021/06/18 03:06:25;;;;;;;10.97;8.93;;;21.90;99.90;;;23.46;77.08;100234.91;6189445;23;20056;-86
2021/06/18 03:09:03;;;;;;;15.70;10.57;;;21.90;99.90;;;23.41;77.29;100241.16;6186928;23;20543;-86
2021/06/18 03:11:39;;;;;;;14.52;9.43;;;21.80;99.90;;;23.35;77.53;100237.25;6162223;23;20001;-84
2021/06/18 03:14:19;;;;;;;;;;;21.80;99.90;;;23.35;77.68;100237.25;6190612;23;20001;-87
2021/06/18 03:16:49;;;;;;;15.02;9.52;;;21.80;99.90;;;23.33;77.70;100244.66;6187866;23;20337;-86
2021/06/18 03:19:20;;;;;;;15.45;8.70;;;21.80;99.90;;;23.29;77.79;100244.78;6187343;23;20409;-86
2021/06/18 03:21:49;;;;;;;16.27;12.25;;;21.70;99.90;;;23.32;78.05;100232.47;6163158;23;20048;-85
2021/06/18 03:24:15;;;;;;;19.35;12.45;;;21.80;99.90;;;23.34;78.54;100235.66;6189198;23;20024;-87
2021/06/18 03:26:42;;;;;;;16.73;10.48;;;21.80;99.90;;;23.35;78.02;100228.72;6189306;23;20015;-85
2021/06/18 03:29:10;;;;;;;17.80;11.52;;;21.80;99.90;;;23.33;78.19;100228.38;6164528;23;20281;-85
2021/06/18 03:31:38;;;;;;;19.35;11.57;;;21.80;99.90;;;23.34;78.51;100238.50;6163577;23;20015;-86
2021/06/18 03:34:05;;;;;;;11.15;9.18;;;21.80;99.90;;;23.35;78.26;100234.41;6162558;23;20036;-86
2021/06/18 03:36:33;;;;;;;14.18;11.38;;;21.80;99.90;;;23.35;78.30;100237.25;6188910;23;20088;-87
2021/06/18 03:39:00;;;;;;;13.43;11.35;;;21.80;99.90;;;23.36;78.55;100241.72;6163739;23;20059;-88
2021/06/18 03:41:27;;;;;;;14.48;10.82;;;21.80;99.90;;;23.35;78.46;100240.09;6190007;23;20384;-86
2021/06/18 03:43:55;;;;;;;15.30;12.82;;;21.80;99.90;;;23.36;78.82;100238.84;6163347;23;20077;-86
2021/06/18 03:46:24;;;;;;;21.55;13.20;;;21.80;99.90;;;23.39;78.49;100243.66;6168964;23;20040;-85
2021/06/18 03:48:54;;;;;;;17.42;12.60;;;21.80;99.90;;;23.44;78.40;100245.94;6184579;23;20005;-83
2021/06/18 03:51:20;;;;;;;15.73;11.05;;;21.80;99.90;;;23.45;78.17;100241.84;6210489;23;20009;-86
2021/06/18 03:53:46;;;;;;;16.83;11.38;;;21.80;99.90;;;23.44;78.26;100257.34;6210868;23;20000;-84
2021/06/18 03:56:12;;;;;;;22.15;12.70;;;21.80;99.90;;;23.45;78.20;100258.94;6184626;23;20040;-85
2021/06/18 03:58:41;;;;;;;13.00;10.73;;;21.80;99.90;;;23.47;78.26;100253.59;6162763;23;20019;-84
2021/06/18 04:01:12;;;;;;;16.85;13.13;;;21.90;99.90;;;23.50;78.20;100249.81;6162148;23;20012;-85
2021/06/18 04:03:45;;;;;;;17.60;13.15;;;21.90;99.90;;;23.50;78.33;100257.59;6186902;23;20024;-84
2021/06/18 04:06:12;;;;;;;19.23;14.38;;;21.90;99.90;;;23.50;78.42;100251.91;6186417;23;20033;-86
2021/06/18 04:08:38;;;;;;;18.70;14.70;;;21.90;99.90;;;23.54;78.17;100256.22;6160922;23;20047;-84
2021/06/18 04:11:07;;;;;;;16.42;13.15;;;21.90;99.90;;;23.56;78.18;100264.31;6188621;23;20001;-85
2021/06/18 04:13:36;;;;;;;17.52;12.98;;;22.00;99.90;;;23.55;78.45;100266.38;6188758;23;20008;-87
2021/06/18 04:16:05;;;;;;;13.95;11.07;;;21.90;99.90;;;23.57;78.13;100269.56;6188912;23;20493;-85
2021/06/18 04:18:34;;;;;;;15.02;11.45;;;21.90;99.90;;;23.60;78.08;100262.13;6191887;23;20027;-86
2021/06/18 04:21:07;;;;;;;15.40;11.88;;;22.00;99.90;;;23.63;77.63;100264.88;6189107;23;20009;-84
2021/06/18 04:23:34;;;;;;;15.75;11.50;;;22.00;99.90;;;23.66;77.53;100260.34;6162104;23;20024;-82
2021/06/18 04:26:00;;;;;;;17.17;12.70;;;22.00;99.90;;;23.71;77.37;100262.59;6162336;23;20266;-84
2021/06/18 04:28:28;;;;;;;16.42;12.98;;;22.10;99.90;;;23.63;76.74;100253.47;6188592;23;20001;-83
2021/06/18 04:30:54;;;;;;;17.88;12.30;;;22.10;99.90;;;23.81;76.14;100254.94;6189333;23;20031;-83
2021/06/18 04:33:20;;;;;;;15.50;10.63;;;22.20;99.90;;;23.92;75.88;100255.41;6188538;23;20001;-84
2021/06/18 04:35:46;;;;;;;19.60;12.35;;;22.30;99.90;;;23.98;75.11;100257.22;6186734;23;20072;-82
2021/06/18 04:38:12;;;;;;;20.63;11.07;;;22.40;99.90;;;24.12;74.59;100245.34;6187638;23;20339;-81
2021/06/18 04:40:39;;;;;;;12.63;9.13;;;22.50;99.90;;;24.26;74.53;100254.66;6160925;23;20076;-82
2021/06/18 04:43:06;;;;;;;15.70;11.90;;;22.50;99.90;;;24.31;73.92;100251.19;6187733;23;20051;-83
2021/06/18 04:45:32;;;;;;;13.90;9.95;;;22.60;99.90;;;24.46;73.64;100258.81;6160547;23;20016;-84
2021/06/18 04:47:59;;;;;;;14.90;11.10;;;22.70;99.90;;;24.50;72.79;100250.09;6187518;23;20009;-83
2021/06/18 04:50:26;;;;;;;15.25;10.45;;;22.80;99.90;;;24.51;72.43;100260.28;6160916;23;20016;-83
2021/06/18 04:52:52;;;;;;;16.13;10.73;;;22.80;99.90;;;24.65;72.46;100251.19;6162258;23;20012;-85
2021/06/18 04:55:19;;;;;;;15.38;11.50;;;22.90;99.90;;;24.79;71.43;100258.44;6188562;23;20371;-83
2021/06/18 04:57:48;;;;;;;15.05;11.45;;;23.00;99.90;;;24.86;70.57;100258.19;6188626;23;20127;-85
2021/06/18 05:00:17;;;;;;;13.20;10.43;;;23.10;99.90;;;24.96;70.71;100257.78;6161802;23;20096;-84
2021/06/18 05:02:44;;;;;;;13.20;9.18;;;23.20;99.90;;;24.93;70.71;100257.94;6190228;23;20032;-85
2021/06/18 05:05:11;;;;;;;12.93;10.02;;;23.20;99.90;;;24.83;70.96;100265.63;6191372;23;20009;-85
2021/06/18 05:07:38;;;;;;;17.50;11.95;;;23.10;99.90;;;24.62;71.60;100267.22;6191033;23;20005;-85
2021/06/18 05:10:04;;;;;;;19.60;11.90;;;23.00;99.90;;;24.80;70.96;100262.88;6164073;23;20347;-82
2021/06/18 05:12:30;;;;;;;22.63;12.02;;;23.10;99.90;;;24.95;69.80;100269.66;6190637;23;20001;-85
2021/06/18 05:14:56;;;;;;;12.50;9.65;;;23.30;99.90;;;25.20;69.53;100269.53;6165117;23;20016;-85
2021/06/18 05:17:23;;;;;;;15.75;10.05;;;23.40;99.90;;;25.40;68.98;100269.94;6164805;23;20372;-84
2021/06/18 05:19:50;;;;;;;11.80;8.98;;;23.50;99.90;;;25.61;68.31;100276.91;6164265;23;20012;-84
2021/06/18 05:22:15;;;;;;;15.25;10.13;;;23.70;99.90;;;25.73;67.57;100272.34;6190733;23;20032;-86
2021/06/18 05:24:41;;;;;;;16.83;10.60;;;23.90;99.90;;;25.75;66.91;100273.47;6165549;23;20055;-84
2021/06/18 05:27:08;;;;;;;15.35;10.20;;;24.10;99.90;;;26.03;66.23;100271.50;6192052;23;20020;-85
2021/06/18 05:29:36;;;;;;;15.95;11.35;;;24.20;99.90;;;26.24;65.79;100264.06;6164097;23;20030;-84
2021/06/18 05:32:05;;;;;;;15.18;10.10;;;24.30;99.90;;;26.42;64.70;100272.72;6190750;23;20039;-82
2021/06/18 05:34:31;;;;;;;15.65;9.80;;;24.50;99.90;;;26.54;64.79;100266.81;6163675;23;20005;-84
2021/06/18 05:36:57;;;;;;;21.30;11.30;;;24.60;99.90;;;26.54;64.33;100268.88;6164050;23;20020;-82
2021/06/18 05:39:23;;;;;;;17.70;10.50;;;24.80;99.90;;;26.67;63.78;100264.59;6190315;23;20015;-85
2021/06/18 05:41:48;;;;;;;13.38;9.90;;;24.90;99.90;;;26.67;64.05;100270.34;6165735;23;20103;-82
2021/06/18 05:44:14;;;;;;;15.68;11.23;;;24.90;99.90;;;26.78;63.44;100275.56;6192173;23;20027;-82
2021/06/18 05:46:40;;;;;;;11.73;10.50;;;25.00;99.90;;;26.95;62.93;100267.47;6165675;23;20009;-86
2021/06/18 05:49:07;;;;;;;16.67;10.60;;;25.10;99.90;;;26.96;63.20;100280.53;6163937;23;20013;-86
2021/06/18 05:51:33;;;;;;;17.33;10.90;;;25.20;99.90;;;27.15;62.30;100282.88;6204159;23;20048;-84
2021/06/18 05:53:58;;;;;;;12.73;10.38;;;25.30;99.90;;;27.20;62.49;100279.34;6179189;23;20072;-86
2021/06/18 05:56:25;;;;;;;18.15;11.25;;;25.40;99.90;;;27.43;61.91;100282.78;6165265;23;20012;-83
2021/06/18 05:58:50;;;;;;;14.70;8.95;;;25.50;99.90;;;27.81;61.57;100279.31;6165365;23;20066;-85
2021/06/18 06:01:16;;;;;;;16.27;10.68;;;25.80;99.90;;;27.93;60.42;100282.00;6164680;23;20024;-85
2021/06/18 06:03:42;;;;;;;13.95;10.55;;;26.00;99.90;;;27.90;60.22;100267.81;6165409;23;20009;-85
2021/06/18 06:06:09;;;;;;;12.93;9.68;;;26.00;99.90;;;28.31;59.24;100269.03;6165017;23;20522;-85
2021/06/18 06:08:36;;;;;;;17.35;10.73;;;26.20;99.90;;;28.35;58.67;100270.44;6192658;23;20055;-87
2021/06/18 06:11:04;;;;;;;16.70;11.05;;;26.30;99.90;;;28.47;58.24;100271.47;6166382;23;20093;-87
2021/06/18 06:13:31;;;;;;;15.95;11.70;;;26.50;99.90;;;28.63;58.48;100256.66;6165952;23;20016;-86
2021/06/18 06:15:58;;;;;;;16.42;8.75;;;26.70;99.90;;;28.95;57.46;100272.19;6164753;23;20008;-85
2021/06/18 06:18:24;;;;;;;17.23;11.38;;;26.90;99.90;;;29.21;57.04;100270.34;6190685;23;20366;-83
2021/06/18 06:20:50;;;;;;;21.58;11.10;;;27.20;99.90;;;29.38;55.91;100276.41;6191615;23;20009;-84
2021/06/18 06:23:19;;;;;;;12.60;8.05;;;27.30;99.90;;;29.57;55.98;100269.16;6192427;23;20020;-83
2021/06/18 06:25:45;;;;;;;11.45;8.73;;;27.50;99.90;;;30.02;54.86;100273.53;6164836;23;20490;-87
2021/06/18 06:28:11;;;;;;;19.20;11.73;;;27.70;99.90;;;29.93;54.35;100276.53;6191726;23;20068;-86
2021/06/18 06:30:37;;;;;;;14.95;8.77;;;27.90;99.90;;;30.12;53.92;100269.22;6191241;23;20455;-85
2021/06/18 06:33:04;;;;;;;10.98;8.77;;;27.90;99.90;;;30.25;52.84;100276.22;6190497;23;20001;-86
2021/06/18 06:35:32;;;;;;;14.57;9.10;;;28.10;99.90;;;30.43;53.07;100283.03;6189869;23;20024;-85
2021/06/18 06:37:59;;;;;;;11.50;7.82;;;28.30;99.90;;;30.60;53.22;100281.94;6163592;23;20444;-84
2021/06/18 06:40:24;;;;;;;13.50;8.40;;;28.30;99.90;;;30.88;52.21;100284.38;6165206;23;20005;-85
2021/06/18 06:42:53;;;;;;;15.23;8.23;;;28.50;99.90;;;31.03;51.41;100282.19;6192477;23;20007;-84
2021/06/18 06:45:19;;;;;;;12.55;9.68;;;28.70;99.90;;;30.85;51.44;100283.31;6189836;23;20399;-85
2021/06/18 06:47:51;;;;;;;16.40;9.45;;;28.80;99.90;;;31.12;51.33;100273.38;6189448;23;20008;-85
2021/06/18 06:50:20;;;;;;;13.45;8.15;;;28.90;99.90;;;31.36;50.45;100268.13;6188654;23;20012;-84
2021/06/18 06:52:47;;;;;;;10.45;8.68;;;29.10;99.90;;;31.52;49.70;100272.47;6189759;23;20005;-86
2021/06/18 06:55:13;;;;;;;13.48;8.73;;;29.20;99.90;;;31.62;50.35;100277.56;6163636;23;20004;-84
2021/06/18 06:57:42;;;;;;;12.90;8.02;;;29.40;99.90;;;32.18;48.28;100277.94;6188673;23;20012;-84
2021/06/18 07:00:10;;;;;;;11.82;7.50;;;29.70;99.90;;;32.37;48.48;100282.78;6163264;23;20067;-86
2021/06/18 07:02:36;;;;;;;11.30;8.02;;;29.90;99.90;;;32.43;47.90;100279.16;6164268;23;20325;-88
2021/06/18 07:05:04;;;;;;;12.07;8.18;;;30.00;99.90;;;32.71;46.98;100272.19;6164585;23;20112;-88
2021/06/18 07:07:30;;;;;;;8.65;7.75;;;30.20;99.90;;;33.09;46.44;100278.63;6189565;23;20067;-86
2021/06/18 07:09:56;;;;;;;15.68;9.50;;;30.40;99.90;;;33.13;45.84;100284.97;6163427;23;20102;-86
2021/06/18 07:12:22;;;;;;;16.60;8.40;;;30.70;99.90;;;33.27;46.11;100295.50;6163521;23;20062;-87
2021/06/18 07:14:48;;;;;;;13.70;7.65;;;30.70;99.90;;;33.69;46.55;100303.19;6189593;23;20009;-89
2021/06/18 07:17:14;;;;;;;10.45;7.80;;;31.00;99.90;;;33.91;44.47;100301.06;6165033;23;20035;-85
2021/06/18 07:19:40;;;;;;;12.95;7.95;;;31.20;99.60;;;33.97;45.42;100294.50;6189873;23;20035;-86
2021/06/18 07:22:07;;;;;;;18.58;9.20;;;31.30;99.90;;;33.83;44.55;100296.34;6165075;23;20362;-86
2021/06/18 07:24:34;;;;;;;12.80;9.18;;;31.30;97.40;;;33.39;45.45;100305.78;6164091;23;20516;-88
2021/06/18 07:27:00;;;;;;;13.38;8.05;;;31.10;97.30;;;33.48;45.84;100301.84;6191630;23;20083;-83
2021/06/18 07:29:26;;;;;;;10.82;7.72;;;31.10;98.80;;;33.63;45.75;100311.09;6190697;23;20024;-86
2021/06/18 07:31:54;;;;;;;11.85;8.50;;;31.20;98.70;;;33.75;45.22;100310.56;6190649;23;20005;-87
2021/06/18 07:34:20;;;;;;;13.02;8.95;;;31.20;97.00;;;33.87;45.76;100311.34;6191116;23;20016;-87
2021/06/18 07:36:46;;;;;;;15.15;8.82;;;31.40;98.70;;;33.90;45.31;100313.19;6190482;23;20009;-86
2021/06/18 07:39:14;;;;;;;10.25;7.70;;;31.40;97.50;;;33.93;45.25;100315.03;6163858;23;20064;-85
2021/06/18 08:48:05;;;;;;;16.08;8.25;;;33.50;74.90;;;36.37;40.22;100315.81;6158042;23;20538;-89
2021/06/18 08:54:43;;;;;;;11.57;7.25;;;33.90;72.60;;;36.65;38.66;100303.84;6070221;23;20492;-90
2021/06/18 08:57:19;;;;;;;19.35;8.88;;;34.10;72.40;;;36.94;37.66;100300.03;6145124;23;20042;-89
2021/06/18 09:00:13;;;;;;;12.40;6.68;;;34.30;72.40;;;36.88;36.18;100300.13;6162788;23;20009;-88
2021/06/18 09:04:00;;;;;;;;;;;;;;;;;;;;;
2021/06/18 09:06:56;;;;;;;11.43;7.28;;;34.50;66.40;;;37.85;35.77;100296.78;6171598;23;20413;-90
2021/06/18 09:09:41;;;;;;;;;;;;;;;;;;;;;
2021/06/18 09:12:27;;;;;;;12.88;6.78;;;34.90;66.00;;;37.34;34.33;100295.25;6189523;23;19939;-89
2021/06/18 09:16:02;;;;;;;14.32;7.85;;;34.80;61.60;;;37.54;34.73;100306.31;6188307;23;20012;-90
2021/06/18 09:19:11;;;;;;;10.68;6.78;;;35.00;63.40;;;37.92;36.04;100286.63;6156705;23;20029;-89
2021/06/18 09:21:42;;;;;;;14.32;8.43;;;35.00;66.50;;;38.03;35.71;100288.53;6127962;23;20020;-89
2021/06/18 09:25:00;;;;;;;13.40;8.02;;;35.10;65.50;;;37.87;35.25;100279.53;6162465;23;20083;-88
2021/06/18 09:29:03;;;;;;;14.63;7.30;;;35.10;63.50;;;38.29;33.69;100286.44;6039828;23;20023;-91
2021/06/18 09:32:15;;;;;;;9.30;6.32;;;35.60;61.20;;;37.86;32.91;100282.97;6107521;23;20009;-91
2021/06/18 09:36:25;;;;;;;9.80;5.50;;;35.30;61.00;;;37.58;33.77;100289.31;6179899;23;20028;-91
2021/06/18 09:39:19;;;;;;;9.75;6.03;;;35.00;59.60;;;37.22;33.81;100271.31;6103742;23;20005;-89
2021/06/18 09:43:15;;;;;;;;;;;;;;;;;;;;;
2021/06/18 09:45:47;;;;;;;11.00;5.78;;;34.50;60.20;;;36.43;35.72;100278.72;6198228;23;20028;-90
2021/06/18 09:48:25;;;;;;;9.55;5.35;;;34.00;62.30;;;36.08;35.94;100281.75;6200774;23;20012;-91
2021/06/18 09:51:15;;;;;;;13.38;6.00;;;33.60;61.80;;;35.60;37.18;100280.34;6173395;23;20009;-91
2021/06/18 09:53:48;;;;;;;9.65;5.05;;;33.20;64.00;;;35.56;36.83;100255.78;6173496;23;20024;-89
2021/06/18 09:56:44;;;;;;;15.32;6.90;;;33.20;63.70;;;35.59;36.63;100258.41;6174447;23;20005;-90
2021/06/18 10:05:16;;;;;;;;;;;;;;;;;;;;;
2021/06/18 10:08:16;;;;;;;8.95;5.03;;;33.10;64.40;;;35.26;37.62;100271.06;6050897;23;20040;-90
2021/06/18 10:54:53;;;;;;;12.43;5.35;;;31.20;68.10;;;33.34;40.09;100243.69;6170707;23;20017;-90
2021/06/18 10:57:30;;;;;;;14.32;5.05;;;31.10;68.40;;;33.12;40.49;100242.88;6161120;23;20022;-90
2021/06/18 11:00:08;;;;;;;8.82;4.78;;;30.90;69.00;;;33.01;40.54;100246.50;6160677;23;20013;-90
2021/06/18 11:02:39;;;;;;;12.95;5.40;;;30.80;68.30;;;32.99;41.45;100243.34;6160094;23;20009;-89
2021/06/18 11:05:14;;;;;;;10.73;4.40;;;30.70;71.30;;;32.94;41.18;100243.34;6159133;23;20375;-90
2021/06/18 11:09:10;;;;;;;;;;;;;;;;;;;;;
2021/06/18 11:12:23;;;;;;;11.95;5.10;;;30.80;66.50;;;33.04;39.83;100241.78;6161023;23;20021;-89
2021/06/18 11:15:23;;;;;;;7.13;3.97;;;30.80;68.20;;;33.10;42.09;100239.72;6158636;23;20017;-90
2021/06/18 11:18:14;;;;;;;12.70;5.10;;;30.90;72.10;;;33.06;40.87;100236.25;6148220;23;20065;-90
2021/06/18 11:20:58;;;;;;;10.50;4.70;;;30.90;70.20;;;33.08;40.51;100219.94;6184076;23;20294;-89
2021/06/18 11:23:34;;;;;;;8.75;4.20;;;30.80;69.50;;;33.10;39.91;100231.84;6185263;23;20064;-88
2021/06/18 11:27:24;;;;;;;9.20;4.40;;;30.80;68.80;;;33.20;40.12;100238.91;6161341;23;20029;-88
2021/06/18 11:31:13;;;;;;;;;;;;;;;;;;;;;
2021/06/18 11:33:52;;;;;;;10.13;5.13;;;30.90;68.40;;;33.29;39.37;100235.00;6161097;23;20040;-89
2021/06/18 11:37:00;;;;;;;10.20;4.85;;;31.00;67.50;;;33.50;38.71;100230.50;6159235;23;20013;-88
2021/06/18 11:40:15;;;;;;;8.80;4.03;;;31.10;66.70;;;33.76;36.65;100224.47;6159170;23;20005;-91
2021/06/18 11:43:32;;;;;;;12.15;4.40;;;31.40;63.30;;;34.09;35.92;100212.78;6158828;23;20009;-88
2021/06/18 11:47:00;;;;;;;12.52;4.35;;;31.70;63.20;;;34.54;36.05;100215.53;6157561;23;20017;-89
2021/06/18 11:49:33;;;;;;;;;;;32.10;63.00;;;35.09;34.51;100217.34;6157995;23;20012;-89
2021/06/18 11:52:12;;;;;;;10.43;4.90;;;32.60;60.70;;;36.01;33.25;100207.53;6181305;23;19908;-88
2021/06/18 11:54:42;;;;;;;12.00;4.78;;;33.30;59.70;;;36.83;32.03;100210.75;6157032;23;20009;-90
2021/06/18 11:57:19;;;;;;;13.52;4.40;;;34.00;58.10;;;37.50;31.81;100212.66;6157012;23;20006;-90
2021/06/18 12:00:44;;;;;;;12.27;5.00;;;34.50;57.30;;;37.58;30.94;100216.47;6181318;23;20317;-90
2021/06/18 12:03:31;;;;;;;10.93;4.35;;;34.90;54.00;;;37.86;31.13;100210.13;6156503;23;20308;-91
2021/06/18 12:07:29;;;;;;;6.80;3.88;;;35.10;55.80;;;38.08;30.29;100203.09;6157427;23;20100;-89
2021/06/18 12:09:59;;;;;;;12.75;4.30;;;35.30;54.30;;;38.05;28.39;100198.41;6153709;23;20014;-89
2021/06/18 12:13:02;;;;;;;10.27;4.22;;;35.60;50.20;;;38.50;28.41;100196.91;6155690;23;20014;-88
2021/06/18 12:16:28;;;;;;;;;;;;;;;;;;;;;
2021/06/18 12:20:14;;;;;;;8.65;4.35;;;36.10;50.20;;;38.87;28.76;100183.38;6158046;23;20062;-89
2021/06/18 12:23:31;;;;;;;9.90;4.30;;;36.20;51.20;;;37.73;26.58;100169.31;6125433;23;20009;-90
2021/06/18 12:26:50;;;;;;;6.88;3.58;;;35.70;47.00;;;36.91;27.29;100176.78;6180013;23;20339;-89
2021/06/18 12:29:21;;;;;;;6.50;3.20;;;35.00;49.20;;;37.07;26.44;100172.03;6155222;23;20013;-88
2021/06/18 12:31:49;;;;;;;4.78;3.05;;;34.80;46.20;;;37.11;25.93;100163.78;6179616;23;20017;-90
2021/06/18 12:34:21;;;;;;;8.73;3.50;;;34.70;46.90;;;36.93;27.22;100162.44;6153578;23;20013;-90
2021/06/18 12:37:07;;;;;;;6.80;3.22;;;34.50;48.70;;;37.29;28.42;100170.88;6180333;23;20064;-89
2021/06/18 12:40:33;;;;;;;11.43;3.42;;;34.70;50.20;;;37.89;27.76;100159.47;6179808;23;20428;-88
2021/06/18 12:43:36;;;;;;;4.70;3.10;;;35.20;49.70;;;38.55;25.80;100171.09;6155615;23;20002;-90
2021/06/18 12:46:31;;;;;;;5.78;2.60;;;35.60;46.20;;;38.76;25.46;100152.28;6151271;23;20044;-90
2021/06/18 12:49:42;;;;;;;6.37;2.83;;;35.90;46.40;;;38.93;24.64;100158.53;6180519;23;20112;-88
2021/06/18 12:56:49;;;;;;;6.00;3.17;;;36.30;46.00;;;38.30;25.46;100141.41;6038230;23;20019;-87
2021/06/18 13:05:21;;;;;;;5.57;2.88;;;36.10;45.60;;;38.63;25.06;100128.97;6053272;23;20044;-87
2021/06/18 13:08:06;;;;;;;;;;;;;;;;;;;;;
2021/06/18 13:10:57;;;;;;;5.63;2.88;;;36.40;44.00;;;38.08;24.51;100139.75;5956397;24;20063;-85
2021/06/18 13:15:12;;;;;;;7.70;3.67;;;36.20;43.00;;;38.30;25.62;100148.03;5971644;24;20027;-89